sensor_id;sensor_type;location;lat;lon;timestamp;P1;durP1;ratioP1;P2;durP2;ratioP2
33987;SDS011;37428;53.580;-1.666;2023-06-14T00:01:06;12.38;;;5.35;;
33987;SDS011;37428;53.580;-1.666;2023-06-14T00:04:09;6.70;;;4.90;;
33987;SDS011;37428;53.580;-1.666;2023-06-14T00:07:11;7.57;;;5.30;;
33987;SDS011;37428;53.580;-1.666;2023-06-14T00:10:13;12.70;;;5.63;;
33987;SDS011;37428;53.580;-1.666;2023-06-14T00:13:18;8.05;;;5.13;;
33987;SDS011;37428;53.580;-1.666;2023-06-14T00:16:20;10.65;;;5.40;;
33987;SDS011;37428;53.580;-1.666;2023-06-14T00:22:24;8.25;;;5.30;;
33987;SDS011;37428;53.580;-1.666;2023-06-14T00:25:28;9.73;;;5.55;;
33987;SDS011;37428;53.580;-1.666;2023-06-14T00:28:36;9.25;;;5.60;;
33987;SDS011;37428;53.580;-1.666;2023-06-14T00:31:38;8.10;;;6.18;;
33987;SDS011;37428;53.580;-1.666;2023-06-14T00:34:40;10.57;;;5.63;;
33987;SDS011;37428;53.580;-1.666;2023-06-14T00:37:43;9.68;;;5.68;;
33987;SDS011;37428;53.580;-1.666;2023-06-14T00:40:45;7.97;;;5.93;;
33987;SDS011;37428;53.580;-1.666;2023-06-14T00:43:50;10.25;;;6.00;;
33987;SDS011;37428;53.580;-1.666;2023-06-14T00:46:53;8.32;;;5.47;;
33987;SDS011;37428;53.580;-1.666;2023-06-14T00:49:55;8.68;;;6.00;;
33987;SDS011;37428;53.580;-1.666;2023-06-14T00:52:58;9.80;;;5.97;;
33987;SDS011;37428;53.580;-1.666;2023-06-14T00:56:01;11.48;;;6.22;;
33987;SDS011;37428;53.580;-1.666;2023-06-14T01:02:07;8.57;;;6.50;;
33987;SDS011;37428;53.580;-1.666;2023-06-14T01:05:16;7.72;;;6.72;;
33987;SDS011;37428;53.580;-1.666;2023-06-14T01:08:21;10.43;;;6.47;;
33987;SDS011;37428;53.580;-1.666;2023-06-14T01:11:31;8.35;;;6.18;;
33987;SDS011;37428;53.580;-1.666;2023-06-14T01:14:40;9.68;;;7.18;;
33987;SDS011;37428;53.580;-1.666;2023-06-14T01:17:43;10.93;;;6.20;;
33987;SDS011;37428;53.580;-1.666;2023-06-14T01:20:47;8.00;;;6.45;;
33987;SDS011;37428;53.580;-1.666;2023-06-14T01:23:52;10.88;;;6.78;;
33987;SDS011;37428;53.580;-1.666;2023-06-14T01:26:56;11.40;;;6.72;;
33987;SDS011;37428;53.580;-1.666;2023-06-14T01:29:59;8.23;;;6.78;;
33987;SDS011;37428;53.580;-1.666;2023-06-14T01:33:07;9.50;;;6.60;;
33987;SDS011;37428;53.580;-1.666;2023-06-14T01:36:10;9.95;;;6.65;;
33987;SDS011;37428;53.580;-1.666;2023-06-14T01:39:15;8.10;;;7.30;;
33987;SDS011;37428;53.580;-1.666;2023-06-14T01:42:18;12.35;;;7.00;;
33987;SDS011;37428;53.580;-1.666;2023-06-14T01:45:23;8.82;;;7.22;;
33987;SDS011;37428;53.580;-1.666;2023-06-14T01:48:26;10.45;;;7.18;;
33987;SDS011;37428;53.580;-1.666;2023-06-14T01:51:38;14.40;;;7.10;;
33987;SDS011;37428;53.580;-1.666;2023-06-14T01:54:46;9.50;;;7.80;;
33987;SDS011;37428;53.580;-1.666;2023-06-14T01:57:49;11.73;;;6.60;;
33987;SDS011;37428;53.580;-1.666;2023-06-14T02:00:52;12.60;;;7.53;;
33987;SDS011;37428;53.580;-1.666;2023-06-14T02:03:56;11.02;;;6.57;;
33987;SDS011;37428;53.580;-1.666;2023-06-14T02:06:58;18.15;;;8.13;;
33987;SDS011;37428;53.580;-1.666;2023-06-14T02:10:02;11.55;;;6.68;;
33987;SDS011;37428;53.580;-1.666;2023-06-14T02:13:05;9.00;;;6.28;;
33987;SDS011;37428;53.580;-1.666;2023-06-14T02:16:07;9.68;;;6.72;;
33987;SDS011;37428;53.580;-1.666;2023-06-14T02:22:11;11.30;;;7.18;;
33987;SDS011;37428;53.580;-1.666;2023-06-14T02:25:16;12.82;;;7.15;;
33987;SDS011;37428;53.580;-1.666;2023-06-14T02:28:18;8.68;;;6.65;;
33987;SDS011;37428;53.580;-1.666;2023-06-14T02:31:22;12.30;;;8.00;;
33987;SDS011;37428;53.580;-1.666;2023-06-14T02:34:24;10.32;;;7.53;;
33987;SDS011;37428;53.580;-1.666;2023-06-14T02:37:26;13.95;;;6.75;;
33987;SDS011;37428;53.580;-1.666;2023-06-14T02:40:31;12.27;;;8.43;;
33987;SDS011;37428;53.580;-1.666;2023-06-14T02:43:33;12.60;;;7.82;;
33987;SDS011;37428;53.580;-1.666;2023-06-14T02:46:36;8.88;;;6.75;;
33987;SDS011;37428;53.580;-1.666;2023-06-14T02:49:38;12.30;;;7.00;;
33987;SDS011;37428;53.580;-1.666;2023-06-14T02:52:44;12.00;;;7.40;;
33987;SDS011;37428;53.580;-1.666;2023-06-14T02:55:57;10.95;;;7.38;;
33987;SDS011;37428;53.580;-1.666;2023-06-14T02:59:01;10.35;;;8.13;;
33987;SDS011;37428;53.580;-1.666;2023-06-14T03:02:24;11.07;;;8.05;;
33987;SDS011;37428;53.580;-1.666;2023-06-14T03:05:27;15.70;;;8.68;;
33987;SDS011;37428;53.580;-1.666;2023-06-14T03:08:30;12.85;;;8.40;;
33987;SDS011;37428;53.580;-1.666;2023-06-14T03:11:42;10.93;;;7.60;;
33987;SDS011;37428;53.580;-1.666;2023-06-14T03:14:44;12.10;;;6.78;;
33987;SDS011;37428;53.580;-1.666;2023-06-14T03:17:47;10.02;;;6.57;;
33987;SDS011;37428;53.580;-1.666;2023-06-14T03:20:49;15.63;;;7.50;;
33987;SDS011;37428;53.580;-1.666;2023-06-14T03:23:51;9.48;;;6.03;;
33987;SDS011;37428;53.580;-1.666;2023-06-14T03:29:57;12.38;;;5.38;;
33987;SDS011;37428;53.580;-1.666;2023-06-14T03:33:00;8.60;;;5.43;;
33987;SDS011;37428;53.580;-1.666;2023-06-14T03:36:04;8.60;;;5.38;;
33987;SDS011;37428;53.580;-1.666;2023-06-14T03:39:06;5.82;;;5.22;;
33987;SDS011;37428;53.580;-1.666;2023-06-14T03:42:14;7.95;;;4.25;;
33987;SDS011;37428;53.580;-1.666;2023-06-14T03:45:17;9.40;;;4.68;;
33987;SDS011;37428;53.580;-1.666;2023-06-14T03:48:20;7.65;;;5.50;;
33987;SDS011;37428;53.580;-1.666;2023-06-14T03:51:23;8.35;;;4.50;;
33987;SDS011;37428;53.580;-1.666;2023-06-14T03:54:26;5.68;;;4.78;;
33987;SDS011;37428;53.580;-1.666;2023-06-14T03:57:30;10.50;;;4.70;;
33987;SDS011;37428;53.580;-1.666;2023-06-14T04:00:34;6.50;;;4.32;;
33987;SDS011;37428;53.580;-1.666;2023-06-14T04:03:36;5.22;;;4.15;;
33987;SDS011;37428;53.580;-1.666;2023-06-14T04:06:42;7.10;;;4.43;;
33987;SDS011;37428;53.580;-1.666;2023-06-14T04:09:45;8.32;;;5.20;;
33987;SDS011;37428;53.580;-1.666;2023-06-14T04:15:53;8.35;;;5.25;;
33987;SDS011;37428;53.580;-1.666;2023-06-14T04:18:56;6.75;;;4.57;;
33987;SDS011;37428;53.580;-1.666;2023-06-14T04:21:59;9.98;;;5.38;;
33987;SDS011;37428;53.580;-1.666;2023-06-14T04:25:02;8.40;;;4.80;;
33987;SDS011;37428;53.580;-1.666;2023-06-14T04:28:07;10.23;;;5.10;;
33987;SDS011;37428;53.580;-1.666;2023-06-14T04:31:09;12.00;;;5.78;;
33987;SDS011;37428;53.580;-1.666;2023-06-14T04:34:12;9.93;;;5.32;;
33987;SDS011;37428;53.580;-1.666;2023-06-14T04:37:18;8.60;;;5.18;;
33987;SDS011;37428;53.580;-1.666;2023-06-14T04:40:28;8.88;;;5.90;;
33987;SDS011;37428;53.580;-1.666;2023-06-14T04:43:32;7.05;;;5.32;;
33987;SDS011;37428;53.580;-1.666;2023-06-14T04:46:38;7.90;;;6.03;;
33987;SDS011;37428;53.580;-1.666;2023-06-14T04:49:45;7.22;;;4.97;;
33987;SDS011;37428;53.580;-1.666;2023-06-14T04:52:48;11.25;;;5.45;;
33987;SDS011;37428;53.580;-1.666;2023-06-14T04:55:51;7.22;;;5.05;;
33987;SDS011;37428;53.580;-1.666;2023-06-14T04:58:54;6.47;;;4.90;;
33987;SDS011;37428;53.580;-1.666;2023-06-14T05:01:57;9.65;;;5.07;;
33987;SDS011;37428;53.580;-1.666;2023-06-14T05:05:00;6.10;;;5.03;;
33987;SDS011;37428;53.580;-1.666;2023-06-14T05:08:02;5.55;;;4.63;;
33987;SDS011;37428;53.580;-1.666;2023-06-14T05:11:10;7.45;;;5.20;;
33987;SDS011;37428;53.580;-1.666;2023-06-14T05:14:15;5.05;;;4.20;;
33987;SDS011;37428;53.580;-1.666;2023-06-14T05:17:18;6.28;;;4.38;;
33987;SDS011;37428;53.580;-1.666;2023-06-14T05:20:20;8.07;;;4.78;;
33987;SDS011;37428;53.580;-1.666;2023-06-14T05:23:24;6.97;;;4.60;;
33987;SDS011;37428;53.580;-1.666;2023-06-14T05:26:27;6.88;;;4.32;;
33987;SDS011;37428;53.580;-1.666;2023-06-14T05:29:32;8.45;;;4.38;;
33987;SDS011;37428;53.580;-1.666;2023-06-14T05:32:34;9.48;;;4.90;;
33987;SDS011;37428;53.580;-1.666;2023-06-14T05:35:36;4.65;;;3.75;;
33987;SDS011;37428;53.580;-1.666;2023-06-14T05:38:53;5.50;;;3.75;;
33987;SDS011;37428;53.580;-1.666;2023-06-14T05:42:07;6.97;;;4.05;;
33987;SDS011;37428;53.580;-1.666;2023-06-14T05:45:12;6.07;;;3.92;;
33987;SDS011;37428;53.580;-1.666;2023-06-14T05:48:16;11.25;;;4.35;;
33987;SDS011;37428;53.580;-1.666;2023-06-14T05:51:19;9.38;;;3.67;;
33987;SDS011;37428;53.580;-1.666;2023-06-14T05:54:35;7.80;;;3.83;;
33987;SDS011;37428;53.580;-1.666;2023-06-14T05:57:39;8.88;;;3.55;;
33987;SDS011;37428;53.580;-1.666;2023-06-14T06:00:43;5.97;;;4.32;;
33987;SDS011;37428;53.580;-1.666;2023-06-14T06:03:46;7.47;;;4.45;;
33987;SDS011;37428;53.580;-1.666;2023-06-14T06:06:51;4.60;;;3.78;;
33987;SDS011;37428;53.580;-1.666;2023-06-14T06:09:55;7.97;;;3.83;;
33987;SDS011;37428;53.580;-1.666;2023-06-14T06:12:57;7.43;;;3.72;;
33987;SDS011;37428;53.580;-1.666;2023-06-14T06:16:01;4.35;;;3.55;;
33987;SDS011;37428;53.580;-1.666;2023-06-14T06:19:03;5.95;;;3.00;;
33987;SDS011;37428;53.580;-1.666;2023-06-14T06:22:05;5.40;;;3.80;;
33987;SDS011;37428;53.580;-1.666;2023-06-14T06:25:08;6.82;;;3.45;;
33987;SDS011;37428;53.580;-1.666;2023-06-14T06:31:14;5.57;;;3.20;;
33987;SDS011;37428;53.580;-1.666;2023-06-14T06:34:16;4.93;;;3.38;;
33987;SDS011;37428;53.580;-1.666;2023-06-14T06:37:19;4.30;;;3.05;;
33987;SDS011;37428;53.580;-1.666;2023-06-14T06:40:21;7.63;;;4.07;;
33987;SDS011;37428;53.580;-1.666;2023-06-14T06:43:23;10.18;;;3.22;;
33987;SDS011;37428;53.580;-1.666;2023-06-14T06:46:27;6.00;;;3.20;;
33987;SDS011;37428;53.580;-1.666;2023-06-14T06:49:31;5.40;;;4.38;;
33987;SDS011;37428;53.580;-1.666;2023-06-14T06:52:34;6.43;;;3.35;;
33987;SDS011;37428;53.580;-1.666;2023-06-14T06:55:37;3.60;;;3.15;;
33987;SDS011;37428;53.580;-1.666;2023-06-14T06:58:39;9.30;;;3.05;;
33987;SDS011;37428;53.580;-1.666;2023-06-14T07:01:42;4.97;;;3.55;;
33987;SDS011;37428;53.580;-1.666;2023-06-14T07:05:00;7.07;;;3.50;;
33987;SDS011;37428;53.580;-1.666;2023-06-14T07:08:04;8.45;;;3.90;;
33987;SDS011;37428;53.580;-1.666;2023-06-14T07:11:06;6.60;;;3.35;;
33987;SDS011;37428;53.580;-1.666;2023-06-14T07:14:09;7.07;;;3.55;;
33987;SDS011;37428;53.580;-1.666;2023-06-14T07:17:15;6.65;;;4.25;;
33987;SDS011;37428;53.580;-1.666;2023-06-14T07:20:19;5.35;;;3.15;;
33987;SDS011;37428;53.580;-1.666;2023-06-14T07:23:24;7.22;;;2.95;;
33987;SDS011;37428;53.580;-1.666;2023-06-14T07:26:26;5.65;;;3.08;;
33987;SDS011;37428;53.580;-1.666;2023-06-14T07:29:30;6.78;;;3.55;;
33987;SDS011;37428;53.580;-1.666;2023-06-14T07:32:36;6.28;;;3.13;;
33987;SDS011;37428;53.580;-1.666;2023-06-14T07:35:41;7.18;;;3.17;;
33987;SDS011;37428;53.580;-1.666;2023-06-14T07:38:43;6.95;;;3.55;;
33987;SDS011;37428;53.580;-1.666;2023-06-14T07:41:45;5.65;;;2.78;;
33987;SDS011;37428;53.580;-1.666;2023-06-14T07:44:47;7.63;;;3.10;;
33987;SDS011;37428;53.580;-1.666;2023-06-14T07:47:52;6.93;;;3.08;;
33987;SDS011;37428;53.580;-1.666;2023-06-14T07:50:54;10.57;;;3.08;;
33987;SDS011;37428;53.580;-1.666;2023-06-14T07:53:58;6.18;;;2.90;;
33987;SDS011;37428;53.580;-1.666;2023-06-14T07:57:06;8.67;;;3.10;;
33987;SDS011;37428;53.580;-1.666;2023-06-14T08:00:10;6.38;;;2.80;;
33987;SDS011;37428;53.580;-1.666;2023-06-14T08:03:17;8.23;;;2.90;;
33987;SDS011;37428;53.580;-1.666;2023-06-14T08:06:21;10.75;;;2.33;;
33987;SDS011;37428;53.580;-1.666;2023-06-14T08:09:23;5.18;;;2.58;;
33987;SDS011;37428;53.580;-1.666;2023-06-14T08:12:25;9.85;;;3.28;;
33987;SDS011;37428;53.580;-1.666;2023-06-14T08:15:29;9.02;;;2.35;;
33987;SDS011;37428;53.580;-1.666;2023-06-14T08:18:33;9.48;;;2.95;;
33987;SDS011;37428;53.580;-1.666;2023-06-14T08:21:39;5.57;;;2.40;;
33987;SDS011;37428;53.580;-1.666;2023-06-14T08:24:41;9.30;;;2.83;;
33987;SDS011;37428;53.580;-1.666;2023-06-14T08:27:50;10.20;;;1.98;;
33987;SDS011;37428;53.580;-1.666;2023-06-14T08:30:52;5.25;;;2.50;;
33987;SDS011;37428;53.580;-1.666;2023-06-14T08:34:00;8.23;;;3.53;;
33987;SDS011;37428;53.580;-1.666;2023-06-14T08:37:02;5.20;;;2.22;;
33987;SDS011;37428;53.580;-1.666;2023-06-14T08:40:06;8.05;;;2.95;;
33987;SDS011;37428;53.580;-1.666;2023-06-14T08:43:17;6.88;;;2.78;;
33987;SDS011;37428;53.580;-1.666;2023-06-14T08:46:20;6.03;;;3.42;;
33987;SDS011;37428;53.580;-1.666;2023-06-14T08:49:30;10.15;;;2.63;;
33987;SDS011;37428;53.580;-1.666;2023-06-14T08:52:33;11.98;;;2.17;;
33987;SDS011;37428;53.580;-1.666;2023-06-14T08:55:40;4.78;;;2.33;;
33987;SDS011;37428;53.580;-1.666;2023-06-14T08:58:49;6.00;;;2.53;;
33987;SDS011;37428;53.580;-1.666;2023-06-14T09:01:52;9.63;;;2.10;;
33987;SDS011;37428;53.580;-1.666;2023-06-14T09:04:59;4.85;;;2.30;;
33987;SDS011;37428;53.580;-1.666;2023-06-14T09:08:01;4.60;;;2.25;;
33987;SDS011;37428;53.580;-1.666;2023-06-14T09:11:05;5.75;;;2.22;;
33987;SDS011;37428;53.580;-1.666;2023-06-14T09:14:08;8.48;;;3.15;;
33987;SDS011;37428;53.580;-1.666;2023-06-14T09:17:28;9.88;;;3.25;;
33987;SDS011;37428;53.580;-1.666;2023-06-14T09:20:35;6.85;;;2.25;;
33987;SDS011;37428;53.580;-1.666;2023-06-14T09:23:37;4.18;;;2.13;;
33987;SDS011;37428;53.580;-1.666;2023-06-14T09:26:40;7.05;;;2.00;;
33987;SDS011;37428;53.580;-1.666;2023-06-14T09:29:42;7.35;;;2.50;;
33987;SDS011;37428;53.580;-1.666;2023-06-14T09:32:44;6.07;;;2.00;;
33987;SDS011;37428;53.580;-1.666;2023-06-14T09:35:51;5.13;;;2.30;;
33987;SDS011;37428;53.580;-1.666;2023-06-14T09:39:01;2.38;;;1.85;;
33987;SDS011;37428;53.580;-1.666;2023-06-14T09:42:16;4.82;;;2.25;;
33987;SDS011;37428;53.580;-1.666;2023-06-14T09:45:19;2.17;;;1.80;;
33987;SDS011;37428;53.580;-1.666;2023-06-14T09:48:22;4.40;;;2.17;;
33987;SDS011;37428;53.580;-1.666;2023-06-14T09:51:28;7.68;;;2.13;;
33987;SDS011;37428;53.580;-1.666;2023-06-14T09:54:31;6.90;;;2.30;;
33987;SDS011;37428;53.580;-1.666;2023-06-14T09:57:41;7.47;;;2.60;;
33987;SDS011;37428;53.580;-1.666;2023-06-14T10:00:44;5.45;;;1.85;;
33987;SDS011;37428;53.580;-1.666;2023-06-14T10:03:49;9.07;;;2.03;;
33987;SDS011;37428;53.580;-1.666;2023-06-14T10:06:56;5.72;;;2.35;;
33987;SDS011;37428;53.580;-1.666;2023-06-14T10:09:59;5.50;;;2.17;;
33987;SDS011;37428;53.580;-1.666;2023-06-14T10:13:02;10.02;;;2.30;;
33987;SDS011;37428;53.580;-1.666;2023-06-14T10:19:11;7.00;;;2.25;;
33987;SDS011;37428;53.580;-1.666;2023-06-14T10:22:23;5.15;;;2.42;;
33987;SDS011;37428;53.580;-1.666;2023-06-14T10:25:31;3.80;;;2.85;;
33987;SDS011;37428;53.580;-1.666;2023-06-14T10:28:33;5.50;;;2.45;;
33987;SDS011;37428;53.580;-1.666;2023-06-14T10:31:39;6.68;;;2.20;;
33987;SDS011;37428;53.580;-1.666;2023-06-14T10:34:43;6.82;;;2.38;;
33987;SDS011;37428;53.580;-1.666;2023-06-14T10:37:48;6.60;;;2.30;;
33987;SDS011;37428;53.580;-1.666;2023-06-14T10:40:52;7.82;;;2.90;;
33987;SDS011;37428;53.580;-1.666;2023-06-14T10:47:34;7.32;;;2.13;;
33987;SDS011;37428;53.580;-1.666;2023-06-14T10:50:38;6.25;;;2.67;;
33987;SDS011;37428;53.580;-1.666;2023-06-14T10:53:46;6.00;;;2.50;;
33987;SDS011;37428;53.580;-1.666;2023-06-14T10:56:50;4.25;;;2.33;;
33987;SDS011;37428;53.580;-1.666;2023-06-14T10:59:53;6.53;;;2.30;;
33987;SDS011;37428;53.580;-1.666;2023-06-14T11:06:35;8.27;;;2.17;;
33987;SDS011;37428;53.580;-1.666;2023-06-14T11:10:03;4.80;;;4.00;;
33987;SDS011;37428;53.580;-1.666;2023-06-14T11:13:12;7.68;;;2.45;;
33987;SDS011;37428;53.580;-1.666;2023-06-14T11:16:15;3.17;;;1.77;;
33987;SDS011;37428;53.580;-1.666;2023-06-14T11:19:18;4.75;;;2.15;;
33987;SDS011;37428;53.580;-1.666;2023-06-14T11:22:20;3.03;;;1.95;;
33987;SDS011;37428;53.580;-1.666;2023-06-14T11:25:24;3.25;;;1.98;;
33987;SDS011;37428;53.580;-1.666;2023-06-14T11:28:35;4.07;;;2.05;;
33987;SDS011;37428;53.580;-1.666;2023-06-14T11:31:38;4.78;;;1.95;;
33987;SDS011;37428;53.580;-1.666;2023-06-14T11:34:45;3.60;;;1.55;;
33987;SDS011;37428;53.580;-1.666;2023-06-14T11:37:48;5.28;;;1.95;;
33987;SDS011;37428;53.580;-1.666;2023-06-14T11:40:58;4.20;;;1.77;;
33987;SDS011;37428;53.580;-1.666;2023-06-14T11:44:01;2.25;;;1.83;;
33987;SDS011;37428;53.580;-1.666;2023-06-14T11:47:04;5.68;;;2.13;;
33987;SDS011;37428;53.580;-1.666;2023-06-14T11:50:07;3.65;;;1.50;;
33987;SDS011;37428;53.580;-1.666;2023-06-14T11:53:10;3.08;;;1.63;;
33987;SDS011;37428;53.580;-1.666;2023-06-14T11:56:14;1.60;;;1.45;;
33987;SDS011;37428;53.580;-1.666;2023-06-14T11:59:17;4.15;;;1.60;;
33987;SDS011;37428;53.580;-1.666;2023-06-14T12:02:25;7.88;;;1.70;;
33987;SDS011;37428;53.580;-1.666;2023-06-14T12:05:29;2.17;;;1.50;;
33987;SDS011;37428;53.580;-1.666;2023-06-14T12:08:34;9.88;;;2.20;;
33987;SDS011;37428;53.580;-1.666;2023-06-14T12:11:41;4.85;;;1.52;;
33987;SDS011;37428;53.580;-1.666;2023-06-14T12:14:43;4.38;;;1.67;;
33987;SDS011;37428;53.580;-1.666;2023-06-14T12:17:45;3.97;;;1.55;;
33987;SDS011;37428;53.580;-1.666;2023-06-14T12:20:48;5.60;;;1.92;;
33987;SDS011;37428;53.580;-1.666;2023-06-14T12:23:51;2.05;;;1.70;;
33987;SDS011;37428;53.580;-1.666;2023-06-14T12:26:56;4.45;;;1.70;;
33987;SDS011;37428;53.580;-1.666;2023-06-14T12:30:00;4.53;;;2.20;;
33987;SDS011;37428;53.580;-1.666;2023-06-14T12:33:03;4.40;;;1.58;;
33987;SDS011;37428;53.580;-1.666;2023-06-14T12:36:07;7.80;;;1.60;;
33987;SDS011;37428;53.580;-1.666;2023-06-14T12:39:11;5.57;;;2.33;;
33987;SDS011;37428;53.580;-1.666;2023-06-14T12:42:16;5.40;;;2.25;;
33987;SDS011;37428;53.580;-1.666;2023-06-14T12:45:18;8.63;;;2.17;;
33987;SDS011;37428;53.580;-1.666;2023-06-14T12:48:20;4.47;;;2.28;;
33987;SDS011;37428;53.580;-1.666;2023-06-14T12:51:22;14.52;;;3.75;;
33987;SDS011;37428;53.580;-1.666;2023-06-14T12:54:25;5.07;;;3.08;;
33987;SDS011;37428;53.580;-1.666;2023-06-14T12:57:29;16.15;;;3.10;;
33987;SDS011;37428;53.580;-1.666;2023-06-14T13:00:31;2.20;;;1.48;;
33987;SDS011;37428;53.580;-1.666;2023-06-14T13:06:35;6.18;;;1.90;;
33987;SDS011;37428;53.580;-1.666;2023-06-14T13:12:40;4.13;;;1.47;;
33987;SDS011;37428;53.580;-1.666;2023-06-14T13:15:42;5.80;;;2.38;;
33987;SDS011;37428;53.580;-1.666;2023-06-14T13:18:46;4.80;;;1.67;;
33987;SDS011;37428;53.580;-1.666;2023-06-14T13:21:48;3.92;;;2.58;;
33987;SDS011;37428;53.580;-1.666;2023-06-14T13:24:50;5.70;;;1.58;;
33987;SDS011;37428;53.580;-1.666;2023-06-14T13:30:55;5.45;;;1.90;;
33987;SDS011;37428;53.580;-1.666;2023-06-14T13:33:57;6.47;;;1.80;;
33987;SDS011;37428;53.580;-1.666;2023-06-14T13:36:59;6.15;;;1.33;;
33987;SDS011;37428;53.580;-1.666;2023-06-14T13:40:02;5.72;;;1.33;;
33987;SDS011;37428;53.580;-1.666;2023-06-14T13:43:06;3.47;;;1.50;;
33987;SDS011;37428;53.580;-1.666;2023-06-14T13:46:08;3.55;;;1.70;;
33987;SDS011;37428;53.580;-1.666;2023-06-14T13:52:12;4.20;;;1.40;;
33987;SDS011;37428;53.580;-1.666;2023-06-14T13:55:14;2.85;;;1.30;;
33987;SDS011;37428;53.580;-1.666;2023-06-14T13:58:18;4.45;;;1.40;;
33987;SDS011;37428;53.580;-1.666;2023-06-14T14:01:21;1.75;;;1.15;;
33987;SDS011;37428;53.580;-1.666;2023-06-14T14:07:25;2.33;;;1.27;;
33987;SDS011;37428;53.580;-1.666;2023-06-14T14:10:31;5.78;;;1.50;;
33987;SDS011;37428;53.580;-1.666;2023-06-14T14:13:35;4.50;;;1.60;;
33987;SDS011;37428;53.580;-1.666;2023-06-14T14:16:38;3.63;;;1.17;;
33987;SDS011;37428;53.580;-1.666;2023-06-14T14:19:40;1.85;;;1.20;;
33987;SDS011;37428;53.580;-1.666;2023-06-14T14:22:42;2.65;;;1.45;;
33987;SDS011;37428;53.580;-1.666;2023-06-14T14:25:44;3.20;;;1.15;;
33987;SDS011;37428;53.580;-1.666;2023-06-14T14:28:47;1.40;;;1.30;;
33987;SDS011;37428;53.580;-1.666;2023-06-14T14:31:49;1.38;;;1.17;;
33987;SDS011;37428;53.580;-1.666;2023-06-14T14:34:51;1.77;;;1.13;;
33987;SDS011;37428;53.580;-1.666;2023-06-14T14:40:55;8.30;;;1.40;;
33987;SDS011;37428;53.580;-1.666;2023-06-14T14:47:01;4.43;;;1.20;;
33987;SDS011;37428;53.580;-1.666;2023-06-14T14:50:03;2.13;;;1.30;;
33987;SDS011;37428;53.580;-1.666;2023-06-14T14:53:08;3.50;;;1.25;;
33987;SDS011;37428;53.580;-1.666;2023-06-14T14:59:14;2.70;;;1.23;;
33987;SDS011;37428;53.580;-1.666;2023-06-14T15:02:16;4.75;;;1.05;;
33987;SDS011;37428;53.580;-1.666;2023-06-14T15:08:20;3.08;;;1.17;;
33987;SDS011;37428;53.580;-1.666;2023-06-14T15:14:25;4.03;;;1.00;;
33987;SDS011;37428;53.580;-1.666;2023-06-14T15:17:27;5.13;;;0.90;;
33987;SDS011;37428;53.580;-1.666;2023-06-14T15:23:31;2.97;;;1.05;;
33987;SDS011;37428;53.580;-1.666;2023-06-14T15:26:33;3.20;;;0.98;;
33987;SDS011;37428;53.580;-1.666;2023-06-14T15:29:37;2.30;;;0.95;;
33987;SDS011;37428;53.580;-1.666;2023-06-14T15:32:39;1.52;;;1.00;;
33987;SDS011;37428;53.580;-1.666;2023-06-14T15:35:41;1.83;;;1.17;;
33987;SDS011;37428;53.580;-1.666;2023-06-14T15:38:43;2.40;;;1.38;;
33987;SDS011;37428;53.580;-1.666;2023-06-14T15:41:45;2.35;;;1.45;;
33987;SDS011;37428;53.580;-1.666;2023-06-14T15:47:50;3.88;;;1.90;;
33987;SDS011;37428;53.580;-1.666;2023-06-14T15:50:52;5.45;;;1.30;;
33987;SDS011;37428;53.580;-1.666;2023-06-14T15:53:54;5.28;;;1.30;;
33987;SDS011;37428;53.580;-1.666;2023-06-14T15:56:56;4.05;;;0.98;;
33987;SDS011;37428;53.580;-1.666;2023-06-14T16:03:02;2.30;;;1.00;;
33987;SDS011;37428;53.580;-1.666;2023-06-14T16:09:06;3.00;;;1.37;;
33987;SDS011;37428;53.580;-1.666;2023-06-14T16:12:09;3.83;;;1.05;;
33987;SDS011;37428;53.580;-1.666;2023-06-14T16:15:13;2.88;;;0.90;;
33987;SDS011;37428;53.580;-1.666;2023-06-14T16:18:16;5.15;;;0.80;;
33987;SDS011;37428;53.580;-1.666;2023-06-14T16:21:18;2.67;;;0.77;;
33987;SDS011;37428;53.580;-1.666;2023-06-14T16:24:20;1.85;;;0.90;;
33987;SDS011;37428;53.580;-1.666;2023-06-14T16:27:22;1.35;;;0.85;;
33987;SDS011;37428;53.580;-1.666;2023-06-14T16:30:26;5.88;;;1.98;;
33987;SDS011;37428;53.580;-1.666;2023-06-14T16:33:28;0.80;;;0.70;;
33987;SDS011;37428;53.580;-1.666;2023-06-14T16:39:32;1.97;;;0.97;;
33987;SDS011;37428;53.580;-1.666;2023-06-14T16:42:35;1.70;;;1.00;;
33987;SDS011;37428;53.580;-1.666;2023-06-14T16:45:39;2.28;;;0.88;;
33987;SDS011;37428;53.580;-1.666;2023-06-14T16:48:41;1.15;;;0.98;;
33987;SDS011;37428;53.580;-1.666;2023-06-14T16:51:43;0.93;;;0.90;;
33987;SDS011;37428;53.580;-1.666;2023-06-14T16:54:45;2.70;;;1.20;;
33987;SDS011;37428;53.580;-1.666;2023-06-14T16:57:47;2.03;;;0.95;;
33987;SDS011;37428;53.580;-1.666;2023-06-14T17:00:50;3.38;;;0.93;;
33987;SDS011;37428;53.580;-1.666;2023-06-14T17:03:52;3.42;;;1.10;;
33987;SDS011;37428;53.580;-1.666;2023-06-14T17:06:54;2.67;;;1.10;;
33987;SDS011;37428;53.580;-1.666;2023-06-14T17:09:58;2.58;;;1.00;;
33987;SDS011;37428;53.580;-1.666;2023-06-14T17:16:04;2.17;;;1.27;;
33987;SDS011;37428;53.580;-1.666;2023-06-14T17:19:07;2.55;;;1.33;;
33987;SDS011;37428;53.580;-1.666;2023-06-14T17:22:09;3.80;;;1.73;;
33987;SDS011;37428;53.580;-1.666;2023-06-14T17:25:11;1.40;;;1.08;;
33987;SDS011;37428;53.580;-1.666;2023-06-14T17:28:13;2.58;;;1.67;;
33987;SDS011;37428;53.580;-1.666;2023-06-14T17:31:18;1.75;;;1.30;;
33987;SDS011;37428;53.580;-1.666;2023-06-14T17:34:20;2.75;;;1.17;;
33987;SDS011;37428;53.580;-1.666;2023-06-14T17:37:24;1.95;;;1.30;;
33987;SDS011;37428;53.580;-1.666;2023-06-14T17:40:27;2.75;;;1.38;;
33987;SDS011;37428;53.580;-1.666;2023-06-14T17:46:37;4.00;;;1.50;;
33987;SDS011;37428;53.580;-1.666;2023-06-14T17:49:41;3.85;;;1.60;;
33987;SDS011;37428;53.580;-1.666;2023-06-14T17:52:43;3.20;;;1.77;;
33987;SDS011;37428;53.580;-1.666;2023-06-14T17:55:47;3.42;;;1.63;;
33987;SDS011;37428;53.580;-1.666;2023-06-14T17:58:49;2.20;;;1.60;;
33987;SDS011;37428;53.580;-1.666;2023-06-14T18:01:54;3.80;;;1.10;;
33987;SDS011;37428;53.580;-1.666;2023-06-14T18:04:56;2.85;;;1.40;;
33987;SDS011;37428;53.580;-1.666;2023-06-14T18:07:58;4.00;;;1.50;;
33987;SDS011;37428;53.580;-1.666;2023-06-14T18:11:02;3.95;;;1.48;;
33987;SDS011;37428;53.580;-1.666;2023-06-14T18:14:11;2.85;;;1.50;;
33987;SDS011;37428;53.580;-1.666;2023-06-14T18:17:18;2.88;;;1.63;;
33987;SDS011;37428;53.580;-1.666;2023-06-14T18:20:22;5.65;;;1.60;;
33987;SDS011;37428;53.580;-1.666;2023-06-14T18:23:27;3.13;;;1.40;;
33987;SDS011;37428;53.580;-1.666;2023-06-14T18:26:29;5.18;;;1.88;;
33987;SDS011;37428;53.580;-1.666;2023-06-14T18:29:33;5.38;;;1.30;;
33987;SDS011;37428;53.580;-1.666;2023-06-14T18:32:37;1.63;;;1.40;;
33987;SDS011;37428;53.580;-1.666;2023-06-14T18:35:41;3.38;;;1.55;;
33987;SDS011;37428;53.580;-1.666;2023-06-14T18:38:43;3.97;;;1.80;;
33987;SDS011;37428;53.580;-1.666;2023-06-14T18:41:46;3.42;;;1.90;;
33987;SDS011;37428;53.580;-1.666;2023-06-14T18:44:48;2.60;;;1.73;;
33987;SDS011;37428;53.580;-1.666;2023-06-14T18:47:57;1.83;;;1.30;;
33987;SDS011;37428;53.580;-1.666;2023-06-14T18:50:59;2.95;;;1.55;;
33987;SDS011;37428;53.580;-1.666;2023-06-14T18:54:01;4.95;;;1.70;;
33987;SDS011;37428;53.580;-1.666;2023-06-14T18:57:05;5.45;;;1.98;;
33987;SDS011;37428;53.580;-1.666;2023-06-14T19:00:10;4.00;;;2.08;;
33987;SDS011;37428;53.580;-1.666;2023-06-14T19:03:16;9.38;;;2.20;;
33987;SDS011;37428;53.580;-1.666;2023-06-14T19:06:19;5.75;;;2.40;;
33987;SDS011;37428;53.580;-1.666;2023-06-14T19:09:23;4.50;;;2.10;;
33987;SDS011;37428;53.580;-1.666;2023-06-14T19:12:25;3.10;;;2.05;;
33987;SDS011;37428;53.580;-1.666;2023-06-14T19:15:27;6.85;;;2.08;;
33987;SDS011;37428;53.580;-1.666;2023-06-14T19:18:31;4.72;;;2.63;;
33987;SDS011;37428;53.580;-1.666;2023-06-14T19:21:33;6.70;;;2.45;;
33987;SDS011;37428;53.580;-1.666;2023-06-14T19:24:36;5.00;;;2.65;;
33987;SDS011;37428;53.580;-1.666;2023-06-14T19:27:38;7.07;;;2.53;;
33987;SDS011;37428;53.580;-1.666;2023-06-14T19:30:40;5.78;;;2.28;;